Terminal Aerodrome Forecast
Issued by NWS

Home | Current Version | Previous Version | Text Only | Print | Product List | Glossary On
Versions: 1 2 3 4 5 6 7 8 9 10 11 12
000
FTUS44 KEPZ 270500 RRA
TAFTCS
TAF
KTCS 270544Z 2706/2806 32006KT P6SM SKC
     FM271900 13005KT P6SM SKC
     FM280200 28006KT P6SM FEW250=

USA.gov is the U.S. government's official web portal to all federal, state and local government web resources and services.